Time;durP1;ratioP1;P1;durP2;ratioP2;P2;SDS_P1;SDS_P2;PMS_P1;PMS_P2;Temp;Humidity;BMP_temperature;BMP_pressure;BME280_temperature;BME280_humidity;BME280_pressure;Samples;Min_cycle;Max_cycle;Signal;HPM_P1;HPM_P2
2022/01/08 00:01:01;;;;;;;16.08;5.70;;;1.10;99.90;;;;;;5077082;28;20060;-65
2022/01/08 00:03:26;;;;;;;13.40;5.63;;;1.10;99.90;;;;;;5076593;28;20044;-66
2022/01/08 00:05:56;;;;;;;15.60;5.40;;;1.10;99.90;;;;;;5076804;28;20076;-67
2022/01/08 00:08:22;;;;;;;12.27;5.30;;;1.10;99.90;;;;;;5076649;28;20070;-66
2022/01/08 00:10:47;;;;;;;11.43;5.20;;;1.20;99.90;;;;;;5058828;28;20527;-66
2022/01/08 00:13:13;;;;;;;13.57;4.90;;;1.20;99.90;;;;;;5059528;28;20064;-64
2022/01/08 00:15:39;;;;;;;11.75;5.03;;;1.20;99.90;;;;;;5059449;28;20534;-69
2022/01/08 00:18:04;;;;;;;11.98;4.90;;;1.20;99.90;;;;;;5058927;28;20518;-65
2022/01/08 00:20:30;;;;;;;12.30;5.18;;;1.20;99.90;;;;;;5076499;28;20044;-66
2022/01/08 00:22:56;;;;;;;13.70;5.28;;;1.20;99.90;;;;;;5076355;28;20078;-66
2022/01/08 00:25:22;;;;;;;13.20;5.50;;;1.20;99.90;;;;;;5055458;28;20090;-66
2022/01/08 00:27:48;;;;;;;14.00;5.55;;;1.10;99.90;;;;;;5076699;28;20110;-66
2022/01/08 00:30:14;;;;;;;16.85;5.35;;;1.10;99.90;;;;;;5076456;28;20041;-66
2022/01/08 00:32:40;;;;;;;14.75;5.80;;;1.10;99.90;;;;;;5076565;28;20119;-66
2022/01/08 00:35:11;;;;;;;13.38;5.40;;;1.10;99.90;;;;;;5058317;28;20375;-65
2022/01/08 00:37:37;;;;;;;13.88;5.70;;;1.10;99.90;;;;;;5058733;28;20141;-65
2022/01/08 00:40:09;;;;;;;14.32;5.97;;;1.10;99.90;;;;;;5058615;28;20040;-65
2022/01/08 00:42:35;;;;;;;14.68;6.13;;;1.00;99.90;;;;;;5058529;28;20044;-67
2022/01/08 00:45:01;;;;;;;13.77;6.15;;;1.00;99.90;;;;;;5076364;28;20040;-66
2022/01/08 00:47:26;;;;;;;10.55;5.97;;;1.00;99.90;;;;;;5058375;28;20052;-66
2022/01/08 00:49:52;;;;;;;14.77;6.28;;;1.00;99.90;;;;;;5076158;28;20052;-65
2022/01/08 00:52:18;;;;;;;15.10;6.30;;;0.90;99.90;;;;;;5076068;28;20044;-67
2022/01/08 00:54:43;;;;;;;14.23;6.43;;;0.90;99.90;;;;;;5075258;28;20052;-67
2022/01/08 00:57:09;;;;;;;15.57;6.30;;;1.30;99.90;;;;;;5038575;28;20102;-65
2022/01/08 00:59:35;;;;;;;18.25;7.50;;;0.90;99.90;;;;;;5055428;28;20384;-65
2022/01/08 01:02:00;;;;;;;16.52;6.45;;;0.90;99.90;;;;;;5055806;28;20479;-67
2022/01/08 01:04:26;;;;;;;14.05;5.93;;;0.90;99.90;;;;;;5038080;28;20049;-66
2022/01/08 01:06:52;;;;;;;18.70;6.15;;;0.90;99.90;;;;;;5038892;28;20048;-66
2022/01/08 01:09:18;;;;;;;12.32;6.05;;;0.90;99.90;;;;;;5037756;28;20473;-67
2022/01/08 01:11:43;;;;;;;17.40;6.72;;;0.90;99.90;;;;;;5055632;28;20144;-65
2022/01/08 01:14:09;;;;;;;14.07;6.03;;;1.00;99.90;;;;;;5055485;28;20044;-66
2022/01/08 01:16:34;;;;;;;13.93;6.50;;;1.10;99.90;;;;;;5021124;28;20063;-66
2022/01/08 01:19:02;;;;;;;16.40;5.97;;;1.10;99.90;;;;;;5055274;28;20052;-66
2022/01/08 01:21:28;;;;;;;11.15;5.82;;;1.10;99.90;;;;;;5038204;28;20059;-66
2022/01/08 01:23:54;;;;;;;11.60;6.13;;;1.10;99.90;;;;;;5055212;28;20053;-65
2022/01/08 01:26:24;;;;;;;19.38;6.93;;;1.10;99.90;;;;;;5053339;28;20056;-65
2022/01/08 01:29:26;;;;;;;18.33;7.35;;;1.10;99.90;;;;;;5057603;28;20037;-66
2022/01/08 01:43:06;;;;;;;18.42;8.77;;;1.70;99.90;;;;;;5075071;28;20052;-68
2022/01/08 01:48:16;;;;;;;24.20;10.07;;;1.30;99.90;;;;;;5075217;28;20139;-65
2022/01/08 01:50:42;;;;;;;18.83;8.90;;;1.40;99.90;;;;;;5074770;28;20127;-67
2022/01/08 01:53:07;;;;;;;22.55;9.73;;;1.50;99.90;;;;;;5075055;28;20083;-66
2022/01/08 01:55:34;;;;;;;23.50;9.93;;;1.50;99.90;;;;;;5064986;28;20076;-67
2022/01/08 01:58:00;;;;;;;22.83;9.82;;;1.60;99.90;;;;;;5068064;28;20044;-66
2022/01/08 02:00:26;;;;;;;19.40;10.10;;;1.60;99.90;;;;;;5075066;28;20142;-66
2022/01/08 02:02:51;;;;;;;25.88;10.52;;;1.70;99.90;;;;;;5074689;28;20084;-68
2022/01/08 02:05:17;;;;;;;22.73;10.63;;;1.70;99.90;;;;;;5074744;28;20388;-66
2022/01/08 02:07:43;;;;;;;20.05;10.18;;;1.70;99.90;;;;;;5057581;28;20090;-68
2022/01/08 02:10:09;;;;;;;23.75;10.75;;;2.30;99.90;;;;;;5074779;28;20068;-65
2022/01/08 02:12:34;;;;;;;19.80;10.85;;;1.70;99.90;;;;;;5074398;28;20087;-66
2022/01/08 02:15:01;;;;;;;21.13;10.43;;;2.50;99.90;;;;;;5074797;28;20428;-67
2022/01/08 02:17:26;;;;;;;24.30;10.60;;;1.50;99.90;;;;;;5074648;28;20109;-66
2022/01/08 02:19:53;;;;;;;21.65;9.57;;;1.40;99.90;;;;;;5056709;28;20135;-65
2022/01/08 02:22:20;;;;;;;25.10;10.50;;;1.40;99.90;;;;;;5057327;28;20076;-66
2022/01/08 02:24:46;;;;;;;22.52;11.77;;;1.30;99.90;;;;;;5069409;28;20138;-65
2022/01/08 02:27:13;;;;;;;23.58;11.27;;;1.30;99.90;;;;;;5037183;28;20059;-67
2022/01/08 02:29:38;;;;;;;26.65;10.95;;;1.30;99.90;;;;;;5054386;28;20349;-67
2022/01/08 02:32:08;;;;;;;23.15;11.40;;;1.20;99.90;;;;;;5037525;28;20048;-66
2022/01/08 02:34:36;;;;;;;29.92;11.63;;;1.20;99.90;;;;;;5054942;28;20041;-67
2022/01/08 02:37:03;;;;;;;22.90;11.90;;;1.20;99.90;;;;;;5034937;28;20076;-67
2022/01/08 02:39:30;;;;;;;29.73;11.77;;;1.10;99.90;;;;;;5017395;28;20351;-65
2022/01/08 02:41:59;;;;;;;23.00;12.02;;;1.10;99.90;;;;;;5050582;28;20056;-68
2022/01/08 02:44:26;;;;;;;28.85;11.60;;;1.10;99.90;;;;;;5054357;28;20037;-67
2022/01/08 02:46:53;;;;;;;22.38;11.52;;;1.00;99.90;;;;;;5055030;28;20124;-65
2022/01/08 02:49:21;;;;;;;20.45;11.63;;;0.90;99.90;;;;;;5037332;28;20052;-68
2022/01/08 02:51:47;;;;;;;27.73;10.75;;;0.90;99.90;;;;;;5037202;28;20132;-67
2022/01/08 02:54:13;;;;;;;22.40;10.70;;;0.90;99.90;;;;;;5054539;28;20041;-66
2022/01/08 02:56:43;;;;;;;22.48;11.50;;;0.80;99.90;;;;;;5074436;28;20087;-66
2022/01/08 02:59:09;;;;;;;27.88;11.50;;;0.90;99.90;;;;;;5074870;28;20392;-66
2022/01/08 03:01:36;;;;;;;24.40;12.13;;;0.80;99.90;;;;;;5074209;28;20044;-66
2022/01/08 03:04:04;;;;;;;29.25;13.02;;;0.80;99.90;;;;;;5061669;28;20060;-66
2022/01/08 03:06:30;;;;;;;29.13;12.68;;;0.80;99.90;;;;;;5038108;28;20059;-65
2022/01/08 03:08:56;;;;;;;26.40;12.23;;;0.70;99.90;;;;;;5057442;28;20052;-67
2022/01/08 03:11:21;;;;;;;27.83;11.70;;;0.70;99.90;;;;;;5057937;28;20057;-67
2022/01/08 03:13:47;;;;;;;26.10;11.52;;;0.70;99.90;;;;;;5057464;28;20067;-65
2022/01/08 03:16:13;;;;;;;26.33;12.02;;;0.70;99.90;;;;;;5040334;28;20499;-65
2022/01/08 03:18:39;;;;;;;26.42;11.98;;;0.60;99.90;;;;;;5057651;28;20040;-66
2022/01/08 03:21:19;;;;;;;25.30;11.70;;;0.60;99.90;;;;;;5040524;28;20071;-66
2022/01/08 03:23:51;;;;;;;25.50;11.55;;;0.60;99.90;;;;;;5040381;28;20116;-68
2022/01/08 03:26:19;;;;;;;28.85;11.77;;;0.60;99.90;;;;;;5038766;28;20056;-67
2022/01/08 03:28:45;;;;;;;32.03;11.65;;;0.60;99.90;;;;;;5037481;28;20041;-68
2022/01/08 03:31:12;;;;;;;26.95;11.32;;;0.50;99.90;;;;;;5037585;28;20045;-66
2022/01/08 03:33:38;;;;;;;30.17;11.88;;;0.50;99.90;;;;;;5021074;28;20349;-66
2022/01/08 03:36:04;;;;;;;23.83;10.85;;;0.50;99.90;;;;;;5019835;28;20045;-67
2022/01/08 03:38:30;;;;;;;26.25;11.02;;;0.90;99.90;;;;;;5037639;28;20052;-68
2022/01/08 03:40:56;;;;;;;23.73;10.45;;;0.50;99.90;;;;;;5058474;28;20384;-67
2022/01/08 03:43:22;;;;;;;20.77;10.48;;;0.50;99.90;;;;;;5059811;28;20040;-67
2022/01/08 03:45:48;;;;;;;27.33;10.57;;;0.40;99.90;;;;;;5077252;28;20124;-69
2022/01/08 03:48:28;;;;;;;22.48;9.85;;;0.40;99.90;;;;;;5059813;28;20419;-67
2022/01/08 03:50:55;;;;;;;23.23;10.07;;;0.40;99.90;;;;;;5077484;28;20052;-65
2022/01/08 03:53:21;;;;;;;28.38;10.25;;;0.50;99.90;;;;;;5076992;28;20105;-67
2022/01/08 03:55:47;;;;;;;23.05;10.07;;;0.40;99.90;;;;;;5063800;28;20050;-66
2022/01/08 03:58:12;;;;;;;22.85;9.50;;;0.50;99.90;;;;;;5073668;28;20049;-67
2022/01/08 04:00:38;;;;;;;21.85;9.38;;;0.50;99.90;;;;;;5077021;28;20048;-66
2022/01/08 04:03:03;;;;;;;19.20;9.15;;;0.50;99.90;;;;;;5077300;28;20084;-66
2022/01/08 04:05:29;;;;;;;20.92;9.68;;;0.50;99.90;;;;;;5076906;28;20071;-68
2022/01/08 04:07:54;;;;;;;18.45;8.82;;;0.40;99.90;;;;;;5059120;28;20053;-69
2022/01/08 04:10:20;;;;;;;27.58;8.82;;;0.50;99.90;;;;;;5076910;28;20068;-67
2022/01/08 04:12:51;;;;;;;24.33;9.77;;;0.50;99.90;;;;;;5076736;28;20048;-66
2022/01/08 04:15:33;;;;;;;26.25;8.98;;;0.50;99.90;;;;;;5059632;28;20048;-66
2022/01/08 04:17:59;;;;;;;18.38;7.97;;;0.50;99.90;;;;;;5058723;28;20062;-67
2022/01/08 04:20:25;;;;;;;23.42;8.25;;;0.50;99.90;;;;;;5076857;28;20515;-67
2022/01/08 04:22:51;;;;;;;21.08;7.35;;;0.50;99.90;;;;;;5076401;28;20054;-67
2022/01/08 04:25:20;;;;;;;20.92;8.13;;;0.50;99.90;;;;;;5057172;28;20456;-66
2022/01/08 04:27:45;;;;;;;23.40;8.18;;;0.50;99.90;;;;;;5076472;28;20090;-67
2022/01/08 04:30:12;;;;;;;24.67;7.30;;;0.50;99.90;;;;;;5058685;28;20079;-66
2022/01/08 04:32:37;;;;;;;23.63;7.90;;;0.50;99.90;;;;;;5076675;28;20094;-67
2022/01/08 04:35:03;;;;;;;17.02;7.35;;;0.50;99.90;;;;;;5076299;28;20045;-67
2022/01/08 04:37:29;;;;;;;16.77;6.95;;;0.50;99.90;;;;;;5075909;28;20133;-67
2022/01/08 04:39:55;;;;;;;20.00;6.85;;;0.50;99.90;;;;;;5076220;28;20048;-67
2022/01/08 04:42:20;;;;;;;16.35;6.75;;;0.60;99.90;;;;;;5076851;28;20072;-67
2022/01/08 04:44:46;;;;;;;17.30;6.50;;;0.50;99.90;;;;;;5076420;28;20123;-66
2022/01/08 04:47:11;;;;;;;17.83;6.50;;;0.60;99.90;;;;;;5058389;28;20103;-69
2022/01/08 04:49:37;;;;;;;13.88;5.78;;;0.60;99.90;;;;;;5058295;28;20125;-66
2022/01/08 04:52:03;;;;;;;12.02;5.68;;;0.60;99.90;;;;;;5058948;28;20045;-69
2022/01/08 04:54:29;;;;;;;19.40;5.95;;;0.60;99.90;;;;;;5074075;28;20167;-67
2022/01/08 04:56:54;;;;;;;15.07;5.95;;;0.70;99.90;;;;;;5055902;28;20044;-67
2022/01/08 04:59:20;;;;;;;16.17;6.32;;;0.70;99.90;;;;;;5038791;28;20048;-66
2022/01/08 05:01:45;;;;;;;18.63;7.00;;;0.70;99.90;;;;;;5054441;28;20449;-70
2022/01/08 05:04:11;;;;;;;19.60;6.82;;;0.70;99.90;;;;;;5063242;28;20131;-66
2022/01/08 05:06:37;;;;;;;19.70;7.57;;;0.80;99.90;;;;;;5075717;28;20457;-68
2022/01/08 05:09:04;;;;;;;16.45;7.05;;;0.80;99.90;;;;;;5058211;28;20040;-67
2022/01/08 05:11:29;;;;;;;15.02;6.70;;;0.60;99.90;;;;;;5076054;28;20411;-66
2022/01/08 05:13:56;;;;;;;22.48;7.65;;;0.60;99.90;;;;;;5075855;28;20060;-66
2022/01/08 05:16:23;;;;;;;22.88;7.70;;;0.60;99.90;;;;;;5075662;28;20054;-68
2022/01/08 05:18:51;;;;;;;14.02;8.00;;;0.60;99.90;;;;;;5075318;28;20041;-67
2022/01/08 05:21:29;;;;;;;18.00;7.45;;;0.60;99.90;;;;;;5075403;28;20135;-67
2022/01/08 05:23:57;;;;;;;22.42;8.18;;;0.60;99.90;;;;;;5075554;28;20058;-66
2022/01/08 05:26:25;;;;;;;21.55;8.75;;;0.70;99.90;;;;;;5053553;28;20049;-67
2022/01/08 05:28:51;;;;;;;31.58;9.63;;;0.60;99.90;;;;;;5073389;28;20053;-66
2022/01/08 05:31:22;;;;;;;23.65;9.70;;;0.60;99.90;;;;;;5057297;28;20495;-67
2022/01/08 05:33:48;;;;;;;21.73;9.88;;;0.60;99.90;;;;;;5075284;28;20131;-66
2022/01/08 05:36:14;;;;;;;31.15;10.30;;;0.50;99.90;;;;;;5057487;28;20452;-67
2022/01/08 05:38:40;;;;;;;32.25;10.80;;;0.50;99.90;;;;;;5054252;28;20083;-67
2022/01/08 05:41:06;;;;;;;40.95;13.02;;;0.50;99.90;;;;;;5047461;28;20052;-68
2022/01/08 05:43:32;;;;;;;40.08;14.20;;;0.50;99.90;;;;;;5035998;28;20045;-66
2022/01/08 05:45:57;;;;;;;29.45;13.20;;;0.50;99.90;;;;;;5037236;28;20049;-67
2022/01/08 05:48:24;;;;;;;37.65;11.80;;;0.50;99.90;;;;;;5055146;28;20090;-67
2022/01/08 05:50:50;;;;;;;27.83;10.95;;;0.40;99.90;;;;;;5054745;28;20120;-69
2022/01/08 05:53:19;;;;;;;27.15;10.98;;;0.40;99.90;;;;;;5038377;28;20118;-67
2022/01/08 05:55:46;;;;;;;35.05;11.07;;;0.30;99.90;;;;;;5049298;28;20074;-67
2022/01/08 05:58:11;;;;;;;33.90;12.02;;;0.40;99.90;;;;;;5044031;28;20472;-69
2022/01/08 06:00:37;;;;;;;27.17;12.40;;;0.30;99.90;;;;;;5066198;28;20072;-66
2022/01/08 06:03:03;;;;;;;35.97;12.88;;;0.30;99.90;;;;;;5054850;28;20373;-67
2022/01/08 06:05:29;;;;;;;27.88;11.98;;;0.30;99.90;;;;;;5062095;28;20094;-66
2022/01/08 06:07:55;;;;;;;30.65;12.00;;;0.20;99.90;;;;;;5057028;28;20055;-68
2022/01/08 06:10:20;;;;;;;29.08;11.25;;;0.30;99.90;;;;;;5074929;28;20052;-66
2022/01/08 06:12:47;;;;;;;35.30;12.15;;;0.20;99.90;;;;;;5074756;28;20048;-67
2022/01/08 06:15:13;;;;;;;28.38;10.60;;;0.20;99.90;;;;;;5057181;28;20135;-67
2022/01/08 06:17:39;;;;;;;25.25;10.38;;;0.20;99.90;;;;;;5074355;28;20043;-68
2022/01/08 06:20:06;;;;;;;27.23;10.52;;;0.20;99.90;;;;;;5074865;28;20054;-67
2022/01/08 06:22:31;;;;;;;37.30;12.35;;;0.20;99.90;;;;;;5074671;28;20056;-67
2022/01/08 06:24:57;;;;;;;25.73;10.98;;;0.20;99.90;;;;;;5074757;28;20053;-68
2022/01/08 06:27:22;;;;;;;64.93;12.45;;;0.20;99.90;;;;;;5074804;28;20052;-66
2022/01/08 06:29:48;;;;;;;42.85;11.90;;;0.10;99.90;;;;;;5074586;28;20063;-66
2022/01/08 06:32:14;;;;;;;29.40;12.02;;;0.10;99.90;;;;;;5074780;28;20107;-67
2022/01/08 06:34:41;;;;;;;34.38;10.98;;;0.10;99.90;;;;;;5074413;28;20049;-65
2022/01/08 06:37:06;;;;;;;38.20;12.50;;;0.10;99.90;;;;;;5051238;28;20045;-67
2022/01/08 06:39:32;;;;;;;29.40;11.27;;;0.20;99.90;;;;;;5054140;28;20044;-68
2022/01/08 06:41:58;;;;;;;38.42;11.15;;;0.20;99.90;;;;;;5074586;28;20059;-67
2022/01/08 06:44:23;;;;;;;39.72;12.50;;;0.20;99.90;;;;;;5060797;28;20055;-66
2022/01/08 06:46:49;;;;;;;34.13;11.57;;;0.20;99.90;;;;;;5078409;28;20040;-66
2022/01/08 06:49:14;;;;;;;35.75;12.90;;;0.30;99.90;;;;;;5078171;28;20041;-67
2022/01/08 06:51:40;;;;;;;36.63;13.05;;;0.30;99.90;;;;;;5076746;28;20445;-68
2022/01/08 06:54:05;;;;;;;36.83;13.93;;;0.30;99.90;;;;;;5056800;28;20041;-67
2022/01/08 06:56:31;;;;;;;32.22;13.20;;;0.40;99.90;;;;;;5058510;28;20110;-66
2022/01/08 06:58:57;;;;;;;32.08;13.05;;;0.20;99.90;;;;;;5054977;28;20449;-68
2022/01/08 07:01:22;;;;;;;39.70;12.18;;;0.20;99.90;;;;;;5045735;28;20040;-67
2022/01/08 07:03:48;;;;;;;52.63;13.75;;;0.20;99.90;;;;;;5068093;28;20463;-67
2022/01/08 07:06:13;;;;;;;31.80;13.60;;;0.20;99.90;;;;;;5078142;28;20101;-68
2022/01/08 07:08:40;;;;;;;30.48;11.48;;;0.20;99.90;;;;;;5060139;28;20041;-67
2022/01/08 07:11:05;;;;;;;33.53;13.00;;;0.20;99.90;;;;;;5061697;28;20503;-68
2022/01/08 07:13:31;;;;;;;35.90;12.90;;;0.10;99.90;;;;;;5060447;28;20064;-69
2022/01/08 07:15:56;;;;;;;39.28;13.38;;;0.10;99.90;;;;;;5078194;28;20086;-67
2022/01/08 07:18:22;;;;;;;28.77;12.38;;;0.10;99.90;;;;;;5077704;28;20040;-66
2022/01/08 07:20:48;;;;;;;32.03;12.85;;;0.00;99.90;;;;;;5077059;28;20059;-66
2022/01/08 07:23:13;;;;;;;274.85;26.92;;;0.10;99.90;;;;;;5078501;28;20132;-67
2022/01/08 07:25:39;;;;;;;38.33;12.73;;;0.20;99.90;;;;;;5043429;28;20051;-68
2022/01/08 07:28:05;;;;;;;36.92;12.82;;;0.10;99.90;;;;;;5059590;28;20426;-68
2022/01/08 07:30:31;;;;;;;31.67;12.20;;;0.10;99.90;;;;;;5077438;28;20135;-68
2022/01/08 07:32:57;;;;;;;37.60;12.98;;;0.10;99.90;;;;;;5060065;28;20048;-66
2022/01/08 07:35:23;;;;;;;31.75;12.95;;;0.20;99.90;;;;;;5077386;28;20048;-68
2022/01/08 07:37:52;;;;;;;36.13;13.43;;;0.20;99.90;;;;;;5077450;28;20049;-67
2022/01/08 07:40:19;;;;;;;30.05;12.90;;;0.20;99.90;;;;;;5077401;28;20113;-69
2022/01/08 07:42:45;;;;;;;27.85;12.02;;;0.20;99.90;;;;;;5077522;28;20155;-67
2022/01/08 07:45:11;;;;;;;30.02;11.40;;;0.20;99.90;;;;;;5077224;28;20045;-70
2022/01/08 07:47:36;;;;;;;40.83;12.55;;;0.20;99.90;;;;;;5059614;28;20044;-67
2022/01/08 07:50:06;;;;;;;31.45;13.02;;;0.20;99.90;;;;;;5076788;28;20385;-68
2022/01/08 07:52:32;;;;;;;31.88;15.02;;;0.20;99.90;;;;;;5035508;28;20058;-68
2022/01/08 07:54:58;;;;;;;35.80;14.32;;;0.20;99.90;;;;;;5019616;28;20046;-67
2022/01/08 07:57:24;;;;;;;46.15;13.27;;;0.20;99.90;;;;;;5036936;28;20073;-66
2022/01/08 07:59:49;;;;;;;31.80;13.38;;;0.20;99.90;;;;;;5037574;28;20041;-67
2022/01/08 08:02:15;;;;;;;33.55;12.85;;;0.20;99.90;;;;;;5053298;28;20052;-70
2022/01/08 08:04:41;;;;;;;39.60;12.93;;;0.20;99.90;;;;;;5037014;28;20049;-66
2022/01/08 08:07:07;;;;;;;28.17;12.25;;;0.20;99.90;;;;;;5059062;28;20049;-67
2022/01/08 08:09:32;;;;;;;29.83;11.93;;;0.20;99.90;;;;;;5066012;28;20068;-66
2022/01/08 08:11:58;;;;;;;29.48;11.73;;;0.20;99.90;;;;;;5035258;28;20076;-70
2022/01/08 08:14:23;;;;;;;32.90;12.50;;;0.20;99.90;;;;;;5019374;28;20041;-67
2022/01/08 08:16:49;;;;;;;32.97;12.65;;;0.20;99.90;;;;;;5019069;28;20049;-67
2022/01/08 08:19:16;;;;;;;31.40;11.07;;;0.20;99.90;;;;;;5036769;28;20049;-67
2022/01/08 08:21:42;;;;;;;29.90;11.30;;;0.30;99.90;;;;;;5036878;28;20087;-68
2022/01/08 08:24:07;;;;;;;30.85;13.23;;;0.30;99.90;;;;;;5036344;28;20049;-67
2022/01/08 08:26:33;;;;;;;38.58;12.10;;;0.30;99.90;;;;;;5036441;28;20045;-69
2022/01/08 08:28:59;;;;;;;27.58;12.77;;;0.40;99.90;;;;;;5018654;28;20449;-67
2022/01/08 08:31:25;;;;;;;28.67;11.48;;;0.30;99.90;;;;;;5018863;28;20114;-68
2022/01/08 08:33:50;;;;;;;25.60;11.70;;;0.30;99.90;;;;;;5036702;28;20092;-68
2022/01/08 08:36:16;;;;;;;30.65;12.23;;;0.40;99.90;;;;;;5036463;28;20465;-66
2022/01/08 08:38:41;;;;;;;36.47;12.18;;;0.50;99.90;;;;;;5036331;28;20503;-67
2022/01/08 08:41:09;;;;;;;39.95;11.88;;;0.60;99.90;;;;;;5034246;28;20166;-68
2022/01/08 08:43:34;;;;;;;28.02;11.82;;;0.60;99.90;;;;;;5056021;28;20110;-68
2022/01/08 08:46:00;;;;;;;28.63;11.13;;;0.70;99.90;;;;;;5048325;28;20504;-67
2022/01/08 08:48:26;;;;;;;30.15;12.27;;;0.70;99.90;;;;;;5038482;28;20149;-67
2022/01/08 08:50:51;;;;;;;29.73;12.18;;;0.80;99.90;;;;;;5070554;28;20113;-67
2022/01/08 08:53:17;;;;;;;27.55;11.52;;;1.00;99.90;;;;;;5058202;28;20110;-68
2022/01/08 08:55:42;;;;;;;30.73;11.82;;;0.90;99.90;;;;;;5058274;28;20110;-67
2022/01/08 08:58:08;;;;;;;34.38;12.15;;;0.90;99.90;;;;;;5075790;28;20041;-67
2022/01/08 09:00:33;;;;;;;27.58;11.27;;;1.00;99.90;;;;;;5058417;28;20048;-68
2022/01/08 09:02:59;;;;;;;26.42;11.20;;;1.00;99.90;;;;;;5075754;28;20344;-67
2022/01/08 09:05:25;;;;;;;23.08;10.57;;;1.00;99.90;;;;;;5075737;28;20051;-68
2022/01/08 09:07:51;;;;;;;25.90;9.32;;;1.00;99.90;;;;;;5058339;28;20098;-66
2022/01/08 09:10:22;;;;;;;25.52;9.65;;;1.10;99.90;;;;;;5052543;28;20052;-67
2022/01/08 09:12:48;;;;;;;25.50;11.13;;;1.10;99.90;;;;;;5058298;28;20052;-66
2022/01/08 09:15:15;;;;;;;24.30;10.52;;;1.10;99.90;;;;;;5058438;28;20094;-67
2022/01/08 09:17:41;;;;;;;30.30;11.07;;;1.10;99.90;;;;;;5058544;28;20040;-68
2022/01/08 09:20:08;;;;;;;23.65;11.32;;;1.20;99.90;;;;;;5058196;28;20060;-69
2022/01/08 09:22:33;;;;;;;24.48;10.38;;;1.20;99.90;;;;;;5058080;28;20048;-68
2022/01/08 09:24:59;;;;;;;30.60;12.63;;;1.20;99.90;;;;;;5075368;28;20048;-69
2022/01/08 09:27:25;;;;;;;27.05;9.85;;;1.20;99.90;;;;;;5058515;28;20063;-67
2022/01/08 09:29:50;;;;;;;18.35;8.63;;;1.20;99.90;;;;;;5075164;28;20369;-68
2022/01/08 09:32:17;;;;;;;23.88;10.07;;;1.30;99.90;;;;;;5057689;28;20055;-67
2022/01/08 09:34:44;;;;;;;28.63;8.77;;;1.30;99.90;;;;;;5057461;28;20059;-68
2022/01/08 09:37:10;;;;;;;28.80;9.63;;;1.40;99.90;;;;;;5075374;28;20417;-67
2022/01/08 09:39:38;;;;;;;27.90;8.48;;;1.50;99.90;;;;;;5075146;28;20080;-65
2022/01/08 09:42:04;;;;;;;21.52;8.88;;;1.60;99.90;;;;;;5058368;28;20052;-68
2022/01/08 09:44:29;;;;;;;19.98;9.35;;;1.60;99.90;;;;;;5058048;28;20059;-66
2022/01/08 09:46:55;;;;;;;21.73;9.00;;;1.70;99.90;;;;;;5057380;28;20119;-68
2022/01/08 09:49:20;;;;;;;21.83;9.75;;;1.70;99.90;;;;;;5075063;28;20119;-67
2022/01/08 09:51:46;;;;;;;26.13;9.18;;;1.80;99.90;;;;;;5075328;28;20048;-67
2022/01/08 09:54:12;;;;;;;20.70;8.93;;;1.80;99.90;;;;;;5074967;28;20452;-66
2022/01/08 09:56:37;;;;;;;19.75;9.57;;;1.80;99.90;;;;;;5040339;28;20063;-68
2022/01/08 09:59:03;;;;;;;25.60;12.07;;;1.80;99.90;;;;;;5057703;28;20357;-67
2022/01/08 10:01:30;;;;;;;26.38;13.05;;;1.80;99.90;;;;;;5074836;28;20051;-67
2022/01/08 10:04:00;;;;;;;23.23;10.18;;;1.80;99.90;;;;;;5074914;28;20145;-67
2022/01/08 10:06:28;;;;;;;23.75;11.10;;;1.90;99.90;;;;;;5074931;28;20059;-68
2022/01/08 10:08:54;;;;;;;23.45;9.10;;;1.90;99.90;;;;;;5056626;28;20052;-68
2022/01/08 10:11:21;;;;;;;20.85;8.57;;;1.90;99.90;;;;;;5055612;28;20056;-66
2022/01/08 10:13:52;;;;;;;27.92;9.75;;;2.00;99.90;;;;;;5057426;28;20358;-67
2022/01/08 10:19:15;;;;;;;17.15;8.00;;;2.10;99.90;;;;;;5081531;28;20128;-67
2022/01/08 10:21:43;;;;;;;21.00;8.98;;;2.20;99.90;;;;;;5063395;28;20055;-66
2022/01/08 10:24:09;;;;;;;16.83;8.40;;;2.20;99.90;;;;;;5081313;28;20076;-68
2022/01/08 10:26:36;;;;;;;21.20;8.75;;;2.20;99.90;;;;;;5063498;28;20109;-67
2022/01/08 10:29:14;;;;;;;21.55;8.48;;;2.20;99.90;;;;;;5081305;28;20147;-67
2022/01/08 10:31:45;;;;;;;19.13;7.72;;;2.30;99.90;;;;;;5063275;28;20453;-68
2022/01/08 10:34:19;;;;;;;17.55;8.15;;;2.40;99.90;;;;;;5080973;28;20068;-68
2022/01/08 10:36:55;;;;;;;21.48;7.75;;;2.40;99.90;;;;;;5081108;28;20114;-66
2022/01/08 10:39:34;;;;;;;19.52;8.90;;;2.40;99.90;;;;;;5063724;28;20081;-66
2022/01/08 10:42:11;;;;;;;16.65;7.43;;;2.40;99.90;;;;;;5023779;28;20064;-69
2022/01/08 10:44:38;;;;;;;20.92;8.32;;;2.50;99.90;;;;;;5041509;28;20072;-67
2022/01/08 10:47:06;;;;;;;26.10;8.40;;;2.50;99.90;;;;;;5023788;28;20520;-68
2022/01/08 10:49:40;;;;;;;29.92;8.60;;;2.60;99.90;;;;;;5023384;28;20103;-67
2022/01/08 10:52:19;;;;;;;19.98;8.20;;;2.60;99.90;;;;;;5041182;28;20400;-66
2022/01/08 10:54:55;;;;;;;18.02;8.30;;;2.70;99.90;;;;;;5041117;28;20079;-66
2022/01/08 10:57:29;;;;;;;17.95;7.72;;;2.70;99.90;;;;;;5040978;28;20045;-69
2022/01/08 10:59:56;;;;;;;20.67;9.00;;;2.70;99.90;;;;;;5023661;28;20068;-67
2022/01/08 11:02:26;;;;;;;23.58;9.18;;;3.20;99.90;;;;;;5040964;28;20124;-66
2022/01/08 11:04:53;;;;;;;23.15;9.05;;;2.80;99.90;;;;;;5023622;28;20049;-68
2022/01/08 11:07:31;;;;;;;16.90;8.68;;;2.80;99.90;;;;;;5041043;28;20072;-67
2022/01/08 11:10:04;;;;;;;28.60;9.45;;;2.80;99.90;;;;;;5053028;28;20052;-67
2022/01/08 11:12:36;;;;;;;17.85;9.55;;;2.80;99.90;;;;;;5063402;28;20098;-67
2022/01/08 11:17:42;;;;;;;25.38;11.75;;;2.80;99.90;;;;;;5063210;28;20052;-68
2022/01/08 11:20:22;;;;;;;22.20;11.68;;;2.80;99.90;;;;;;5080655;28;20052;-70
2022/01/08 11:22:53;;;;;;;23.58;12.18;;;2.80;99.90;;;;;;5063080;28;20048;-67
2022/01/08 11:25:24;;;;;;;26.23;11.80;;;2.90;99.90;;;;;;5080819;28;20044;-68
2022/01/08 11:27:53;;;;;;;27.95;14.63;;;2.90;99.90;;;;;;5076995;28;20048;-67
2022/01/08 11:30:23;;;;;;;29.75;12.35;;;2.90;99.90;;;;;;5059987;28;20114;-67
2022/01/08 11:32:51;;;;;;;23.75;12.00;;;2.90;99.90;;;;;;5077331;28;20052;-67
2022/01/08 11:35:18;;;;;;;27.33;12.52;;;2.90;99.90;;;;;;5077511;28;20036;-68
2022/01/08 11:37:49;;;;;;;24.88;14.10;;;3.00;99.90;;;;;;5076986;28;20488;-68
2022/01/08 11:40:17;;;;;;;30.20;12.40;;;3.00;99.90;;;;;;5047906;28;20149;-67
2022/01/08 11:42:44;;;;;;;23.50;14.20;;;3.10;99.90;;;;;;5019901;28;20123;-67
2022/01/08 11:45:13;;;;;;;34.08;16.30;;;3.10;99.90;;;;;;5042556;28;20079;-68
2022/01/08 11:47:43;;;;;;;22.40;15.00;;;3.20;99.90;;;;;;5066928;28;20083;-68
2022/01/08 11:50:11;;;;;;;23.85;11.95;;;3.20;99.90;;;;;;5077191;28;20076;-68
2022/01/08 11:52:36;;;;;;;22.08;11.82;;;3.30;99.90;;;;;;5077446;28;20113;-67
2022/01/08 11:55:02;;;;;;;16.58;10.35;;;3.40;99.90;;;;;;5076995;28;20044;-68
2022/01/08 11:57:30;;;;;;;21.83;11.10;;;3.40;99.90;;;;;;5065170;28;20131;-66
2022/01/08 12:00:01;;;;;;;19.70;10.80;;;3.40;99.90;;;;;;5038865;28;20049;-67
2022/01/08 12:02:38;;;;;;;20.85;10.98;;;3.50;99.90;;;;;;5057028;28;20063;-67
2022/01/08 12:05:05;;;;;;;21.05;11.05;;;3.50;99.90;;;;;;5056836;28;20453;-65
2022/01/08 12:07:38;;;;;;;20.85;9.93;;;3.50;99.90;;;;;;5042001;28;20040;-65
2022/01/08 12:10:19;;;;;;;;;;;3.60;99.90;;;;;;5048208;28;20365;-66
2022/01/08 12:13:00;;;;;;;17.48;9.95;;;3.60;99.90;;;;;;5038968;28;19946;-65
2022/01/08 12:15:40;;;;;;;17.13;10.23;;;3.70;99.90;;;;;;5056881;28;20140;-67
2022/01/08 12:18:09;;;;;;;21.38;11.20;;;3.70;99.90;;;;;;5039050;28;20045;-69
2022/01/08 12:20:48;;;;;;;16.40;10.93;;;3.70;99.90;;;;;;5056394;28;20063;-67
2022/01/08 12:23:30;;;;;;;19.35;11.80;;;3.70;99.90;;;;;;5056544;28;20091;-68
2022/01/08 12:26:02;;;;;;;21.35;12.25;;;3.70;99.90;;;;;;5039296;28;20191;-68
2022/01/08 12:28:46;;;;;;;21.80;12.38;;;3.80;99.90;;;;;;5056255;28;20445;-68
2022/01/08 12:31:37;;;;;;;25.27;12.02;;;3.70;99.90;;;;;;5056227;28;20041;-67
2022/01/08 12:34:29;;;;;;;26.02;13.75;;;3.80;99.90;;;;;;5056395;28;20049;-67
2022/01/08 12:37:13;;;;;;;22.80;14.18;;;3.80;99.90;;;;;;5038704;28;20092;-67
2022/01/08 12:39:51;;;;;;;24.90;14.30;;;3.80;99.90;;;;;;5057949;28;20051;-68
2022/01/08 12:42:20;;;;;;;29.40;16.02;;;3.80;99.90;;;;;;5036335;28;20124;-66
2022/01/08 12:45:04;;;;;;;23.73;15.57;;;3.80;99.90;;;;;;5018508;28;20060;-66
2022/01/08 12:47:56;;;;;;;30.02;15.73;;;3.90;99.90;;;;;;5018625;28;20061;-66
2022/01/08 12:50:23;;;;;;;30.02;19.88;;;3.90;99.90;;;;;;5055489;28;20420;-67
2022/01/08 12:53:07;;;;;;;29.45;16.33;;;3.80;99.90;;;;;;5055896;28;20048;-66
2022/01/08 12:55:40;;;;;;;23.55;17.67;;;3.90;99.90;;;;;;5055729;28;20411;-68
2022/01/08 12:58:19;;;;;;;31.53;17.73;;;3.90;99.90;;;;;;5055810;28;20122;-68
2022/01/08 13:01:12;;;;;;;27.02;18.15;;;3.80;99.90;;;;;;5055999;28;20654;-67
2022/01/08 13:03:46;;;;;;;25.67;18.80;;;3.90;99.90;;;;;;5055895;28;20425;-69